createdAt,value
2022-09-28T00:00:16.295Z,352
2022-09-28T00:01:15.930Z,348
2022-09-28T00:02:16.727Z,351
2022-09-28T00:03:15.891Z,350
2022-09-28T00:04:15.500Z,351
2022-09-28T00:05:16.678Z,347
2022-09-28T00:06:15.954Z,351
2022-09-28T00:07:16.565Z,359
2022-09-28T00:08:16.547Z,352
2022-09-28T00:09:15.325Z,355
2022-09-28T00:10:16.358Z,363
2022-09-28T00:11:16.064Z,357
2022-09-28T00:12:16.183Z,339
2022-09-28T00:13:16.855Z,346
2022-09-28T00:14:15.588Z,349
2022-09-28T00:15:16.025Z,350
2022-09-28T00:16:16.592Z,345
2022-09-28T00:17:16.208Z,340
2022-09-28T00:18:15.840Z,347
2022-09-28T00:19:15.928Z,359
2022-09-28T00:20:16.333Z,346
2022-09-28T00:21:16.046Z,355
2022-09-28T00:22:16.324Z,358
2022-09-28T00:23:15.740Z,354
2022-09-28T00:24:16.616Z,346
2022-09-28T00:25:16.117Z,344
2022-09-28T00:26:15.556Z,349
2022-09-28T00:27:16.363Z,345
2022-09-28T00:28:15.922Z,334
2022-09-28T00:29:14.988Z,340
2022-09-28T00:30:16.219Z,349
2022-09-28T00:31:16.503Z,334
2022-09-28T00:32:15.879Z,359
2022-09-28T00:33:16.346Z,358
2022-09-28T00:34:15.279Z,353
2022-09-28T00:36:16.714Z,356
2022-09-28T00:37:16.367Z,361
2022-09-28T00:38:15.667Z,359
2022-09-28T00:39:16.382Z,360
2022-09-28T00:40:16.312Z,364
2022-09-28T00:41:15.835Z,355
2022-09-28T00:42:16.313Z,359
2022-09-28T00:43:15.789Z,356
2022-09-28T00:44:15.496Z,359
2022-09-28T00:45:16.256Z,355
2022-09-28T00:46:15.736Z,356
2022-09-28T00:47:16.244Z,354
2022-09-28T00:48:16.514Z,352
2022-09-28T00:49:15.048Z,348
2022-09-28T00:50:16.471Z,355
2022-09-28T00:52:15.386Z,352
2022-09-28T00:53:16.422Z,349
2022-09-28T00:54:15.184Z,347
2022-09-28T00:55:16.566Z,345
2022-09-28T00:56:16.562Z,362
2022-09-28T00:57:16.242Z,356
2022-09-28T00:58:15.085Z,346
2022-09-28T00:59:15.628Z,354
2022-09-28T01:00:16.174Z,353
2022-09-28T01:03:16.924Z,355
2022-09-28T01:04:15.568Z,354
2022-09-28T01:05:16.128Z,345
2022-09-28T01:06:15.586Z,353
2022-09-28T01:07:16.403Z,341
2022-09-28T01:08:15.997Z,347
2022-09-28T01:10:16.266Z,338
2022-09-28T01:11:16.692Z,342
2022-09-28T01:12:15.792Z,351
2022-09-28T01:13:16.189Z,345
2022-09-28T01:14:15.669Z,355
2022-09-28T01:15:16.212Z,352
2022-09-28T01:16:15.954Z,340
2022-09-28T01:17:16.479Z,345
2022-09-28T01:18:16.295Z,343
2022-09-28T01:19:14.885Z,339
2022-09-28T01:20:16.278Z,341
2022-09-28T01:21:15.788Z,340
2022-09-28T01:22:16.702Z,337
2022-09-28T01:23:16.487Z,349
2022-09-28T01:24:15.109Z,357
2022-09-28T01:25:16.656Z,359
2022-09-28T01:26:16.202Z,356
2022-09-28T01:27:15.992Z,354
2022-09-28T01:28:16.603Z,353
2022-09-28T01:29:15.499Z,347
2022-09-28T01:30:15.900Z,357
2022-09-28T01:31:16.341Z,348
2022-09-28T01:32:15.991Z,346
2022-09-28T01:33:16.682Z,342
2022-09-28T01:34:15.008Z,348
2022-09-28T01:35:16.085Z,343
2022-09-28T01:36:16.738Z,341
2022-09-28T01:37:16.363Z,352
2022-09-28T01:38:15.558Z,355
2022-09-28T01:39:15.836Z,354
2022-09-28T01:40:16.008Z,355
2022-09-28T01:41:15.783Z,359
2022-09-28T01:42:16.901Z,364
2022-09-28T01:43:16.106Z,362
2022-09-28T01:44:14.896Z,355
2022-09-28T01:45:16.535Z,346
2022-09-28T01:46:16.186Z,347
2022-09-28T01:47:15.877Z,351
2022-09-28T01:48:16.633Z,349
2022-09-28T01:49:15.428Z,352
2022-09-28T01:50:16.166Z,359
2022-09-28T01:51:16.215Z,352
2022-09-28T01:52:16.230Z,346
2022-09-28T01:53:15.548Z,358
2022-09-28T01:54:15.234Z,359
2022-09-28T01:55:15.880Z,356
2022-09-28T01:56:15.705Z,361
2022-09-28T01:57:16.266Z,351
2022-09-28T01:58:15.964Z,343
2022-09-28T01:59:16.154Z,344
2022-09-28T02:00:15.836Z,348
2022-09-28T02:01:16.156Z,346
2022-09-28T02:03:16.287Z,353
2022-09-28T02:04:15.253Z,357
2022-09-28T02:05:16.262Z,353
2022-09-28T02:06:16.221Z,350
2022-09-28T02:07:15.930Z,348
2022-09-28T02:08:16.458Z,350
2022-09-28T02:09:15.274Z,354
2022-09-28T02:10:15.375Z,353
2022-09-28T02:12:15.734Z,350
2022-09-28T02:13:15.205Z,353
2022-09-28T02:14:14.964Z,356
2022-09-28T02:15:15.894Z,347
2022-09-28T02:16:16.714Z,355
2022-09-28T02:17:16.387Z,353
2022-09-28T02:18:15.219Z,338
2022-09-28T02:19:15.851Z,335
2022-09-28T02:20:16.414Z,346
2022-09-28T02:21:15.867Z,348
2022-09-28T02:23:16.267Z,343
2022-09-28T02:24:17.227Z,354
2022-09-28T02:25:16.560Z,355
2022-09-28T02:26:16.270Z,366
2022-09-28T02:27:15.601Z,364
2022-09-28T02:28:16.604Z,355
2022-09-28T02:29:15.481Z,354
2022-09-28T02:30:15.681Z,361
2022-09-28T02:32:16.097Z,356
2022-09-28T02:33:15.701Z,353
2022-09-28T02:34:15.549Z,352
2022-09-28T02:35:15.998Z,349
2022-09-28T02:36:15.762Z,351
2022-09-28T02:37:16.505Z,336
2022-09-28T02:38:16.048Z,362
2022-09-28T02:39:16.279Z,341
2022-09-28T02:40:16.646Z,354
2022-09-28T02:41:16.098Z,364
2022-09-28T02:42:16.550Z,359
2022-09-28T02:43:23.643Z,366
2022-09-28T02:44:14.810Z,360
2022-09-28T02:45:16.940Z,355
2022-09-28T02:46:15.934Z,353
2022-09-28T02:47:16.001Z,360
2022-09-28T02:48:21.269Z,358
2022-09-28T02:50:15.726Z,349
2022-09-28T02:51:16.574Z,343
2022-09-28T02:52:16.181Z,346
2022-09-28T02:53:15.863Z,353
2022-09-28T02:54:21.196Z,361
2022-09-28T02:55:16.269Z,358
2022-09-28T02:56:15.814Z,354
2022-09-28T02:57:16.717Z,356
2022-09-28T02:58:16.131Z,357
2022-09-28T02:59:15.050Z,355
2022-09-28T03:00:16.248Z,369
2022-09-28T03:01:16.275Z,352
2022-09-28T03:02:15.172Z,349
2022-09-28T03:03:16.301Z,355
2022-09-28T03:04:14.948Z,359
2022-09-28T03:05:15.798Z,354
2022-09-28T03:06:15.962Z,355
2022-09-28T03:07:15.912Z,347
2022-09-28T03:08:15.468Z,348
2022-09-28T03:09:16.018Z,345
2022-09-28T03:10:15.853Z,347
2022-09-28T03:11:16.351Z,351
2022-09-28T03:13:15.545Z,356
2022-09-28T03:15:16.117Z,350
2022-09-28T03:16:16.676Z,349
2022-09-28T03:17:16.198Z,350
2022-09-28T03:18:16.103Z,355
2022-09-28T03:19:17.057Z,347
2022-09-28T03:20:15.995Z,359
2022-09-28T03:21:15.746Z,370
2022-09-28T03:22:16.450Z,345
2022-09-28T03:23:28.588Z,357
2022-09-28T03:24:14.469Z,353
2022-09-28T03:25:16.345Z,351
2022-09-28T03:26:15.126Z,354
2022-09-28T03:27:16.547Z,358
2022-09-28T03:28:16.438Z,352
2022-09-28T03:29:15.889Z,354
2022-09-28T03:30:15.121Z,353
2022-09-28T03:31:15.868Z,346
2022-09-28T03:32:15.635Z,340
2022-09-28T03:33:16.577Z,343
2022-09-28T03:34:15.251Z,339
2022-09-28T03:35:16.474Z,343
2022-09-28T03:36:16.081Z,354
2022-09-28T03:37:16.053Z,348
2022-09-28T03:38:16.602Z,346
2022-09-28T03:39:16.253Z,348
2022-09-28T03:40:15.494Z,352
2022-09-28T03:41:16.256Z,347
2022-09-28T03:42:16.064Z,345
2022-09-28T03:43:16.518Z,346
2022-09-28T03:44:16.451Z,344
2022-09-28T03:45:15.711Z,343
2022-09-28T03:46:16.808Z,340
2022-09-28T03:47:16.205Z,348
2022-09-28T03:48:19.491Z,354
2022-09-28T03:49:16.661Z,353
2022-09-28T03:50:15.940Z,351
2022-09-28T03:52:16.896Z,347
2022-09-28T03:53:16.423Z,353
2022-09-28T03:54:15.117Z,349
2022-09-28T03:55:16.518Z,351
2022-09-28T03:56:15.502Z,347
2022-09-28T03:57:16.080Z,343
2022-09-28T03:58:16.465Z,349
2022-09-28T03:59:15.368Z,353
2022-09-28T04:00:15.373Z,354
2022-09-28T04:01:21.549Z,355
2022-09-28T04:02:15.755Z,344
2022-09-28T04:03:16.001Z,380
2022-09-28T04:04:15.133Z,351
2022-09-28T04:05:16.340Z,350
2022-09-28T04:06:15.195Z,349
2022-09-28T04:07:16.555Z,343
2022-09-28T04:08:16.114Z,346
2022-09-28T04:09:16.625Z,350
2022-09-28T04:10:16.015Z,358
2022-09-28T04:11:15.940Z,367
2022-09-28T04:12:15.234Z,357
2022-09-28T04:13:16.464Z,358
2022-09-28T04:14:16.190Z,354
2022-09-28T04:15:15.448Z,356
2022-09-28T04:16:16.322Z,353
2022-09-28T04:17:16.016Z,355
2022-09-28T04:18:16.097Z,356
2022-09-28T04:19:15.312Z,357
2022-09-28T04:20:15.611Z,358
2022-09-28T04:21:16.348Z,362
2022-09-28T04:23:15.627Z,346
2022-09-28T04:24:15.516Z,350
2022-09-28T04:25:15.930Z,325
2022-09-28T04:26:16.910Z,335
2022-09-28T04:27:16.404Z,354
2022-09-28T04:28:15.978Z,358
2022-09-28T04:29:16.731Z,355
2022-09-28T04:30:16.075Z,358
2022-09-28T04:31:16.653Z,355
2022-09-28T04:32:16.273Z,350
2022-09-28T04:33:16.124Z,352
2022-09-28T04:34:15.358Z,343
2022-09-28T04:35:16.543Z,349
2022-09-28T04:36:15.799Z,345
2022-09-28T04:37:16.487Z,349
2022-09-28T04:38:26.801Z,343
2022-09-28T04:39:15.195Z,354
2022-09-28T04:40:16.823Z,356
2022-09-28T04:41:16.318Z,362
2022-09-28T04:42:15.670Z,360
2022-09-28T04:43:16.403Z,361
2022-09-28T04:44:16.043Z,354
2022-09-28T04:45:15.979Z,336
2022-09-28T04:46:16.069Z,380
2022-09-28T04:47:15.978Z,364
2022-09-28T04:49:16.846Z,361
2022-09-28T04:50:15.705Z,364
2022-09-28T04:51:16.012Z,361
2022-09-28T04:53:16.280Z,352
2022-09-28T04:54:14.522Z,351
2022-09-28T04:55:16.275Z,359
2022-09-28T04:56:16.126Z,363
2022-09-28T04:57:15.616Z,361
2022-09-28T04:58:16.618Z,356
2022-09-28T04:59:15.449Z,353
2022-09-28T05:00:15.025Z,356
2022-09-28T05:01:16.489Z,359
2022-09-28T05:02:16.175Z,360
2022-09-28T05:03:16.923Z,349
2022-09-28T05:05:16.189Z,346
2022-09-28T05:06:16.591Z,356
2022-09-28T05:07:16.123Z,332
2022-09-28T05:08:15.260Z,347
2022-09-28T05:09:15.931Z,355
2022-09-28T05:10:16.108Z,357
2022-09-28T05:11:16.000Z,350
2022-09-28T05:12:16.645Z,348
2022-09-28T05:14:15.109Z,354
2022-09-28T05:15:16.624Z,361
2022-09-28T05:16:16.436Z,360
2022-09-28T05:17:15.804Z,355
2022-09-28T05:18:16.553Z,356
2022-09-28T05:19:15.475Z,352
2022-09-28T05:20:15.193Z,340
2022-09-28T05:21:16.512Z,352
2022-09-28T05:22:16.175Z,353
2022-09-28T05:23:15.645Z,354
2022-09-28T05:24:15.383Z,360
2022-09-28T05:25:16.097Z,353
2022-09-28T05:26:15.241Z,349
2022-09-28T05:27:16.665Z,355
2022-09-28T05:28:16.391Z,348
2022-09-28T05:29:15.130Z,344
2022-09-28T05:30:16.853Z,356
2022-09-28T05:31:16.301Z,353
2022-09-28T05:32:15.926Z,356
2022-09-28T05:33:16.428Z,362
2022-09-28T05:34:15.134Z,374
2022-09-28T05:35:15.982Z,370
2022-09-28T05:36:16.655Z,366
2022-09-28T05:37:15.972Z,362
2022-09-28T05:38:16.802Z,366
2022-09-28T05:39:15.693Z,361
2022-09-28T05:40:15.690Z,360
2022-09-28T05:42:16.411Z,352
2022-09-28T05:43:15.975Z,357
2022-09-28T05:44:15.599Z,353
2022-09-28T05:45:16.117Z,352
2022-09-28T05:46:16.164Z,347
2022-09-28T05:47:16.493Z,354
2022-09-28T05:48:16.286Z,339
2022-09-28T05:49:16.007Z,359
2022-09-28T05:52:15.786Z,361
2022-09-28T05:53:16.594Z,362
2022-09-28T05:54:16.509Z,360
2022-09-28T05:55:15.996Z,367
2022-09-28T05:56:16.484Z,368
2022-09-28T05:57:16.602Z,361
2022-09-28T05:58:15.684Z,355
2022-09-28T05:59:16.438Z,363
2022-09-28T06:00:15.953Z,362
2022-09-28T06:01:15.726Z,369
2022-09-28T06:02:16.470Z,363
2022-09-28T06:03:16.086Z,367
2022-09-28T06:04:15.762Z,369
2022-09-28T06:05:16.272Z,367
2022-09-28T06:06:16.351Z,360
2022-09-28T06:07:15.862Z,366
2022-09-28T06:08:16.191Z,363
2022-09-28T06:09:16.240Z,371
2022-09-28T06:10:15.696Z,363
2022-09-28T06:11:16.485Z,350
2022-09-28T06:12:15.947Z,348
2022-09-28T06:13:16.815Z,359
2022-09-28T06:14:16.268Z,367
2022-09-28T06:15:15.889Z,360
2022-09-28T06:16:15.938Z,364
2022-09-28T06:17:16.378Z,362
2022-09-28T06:18:16.213Z,352
2022-09-28T06:19:16.586Z,362
2022-09-28T06:20:15.911Z,365
2022-09-28T06:21:16.096Z,354
2022-09-28T06:22:16.602Z,358
2022-09-28T06:23:16.386Z,355
2022-09-28T06:24:15.120Z,356
2022-09-28T06:25:16.240Z,350
2022-09-28T06:26:15.868Z,355
2022-09-28T06:27:16.455Z,360
2022-09-28T06:28:16.178Z,352
2022-09-28T06:29:20.881Z,347
2022-09-28T06:31:16.500Z,335
2022-09-28T06:32:16.507Z,367
2022-09-28T06:33:16.334Z,354
2022-09-28T06:34:15.168Z,350
2022-09-28T06:35:16.619Z,344
2022-09-28T06:36:15.810Z,349
2022-09-28T06:37:15.978Z,363
2022-09-28T06:38:16.627Z,352
2022-09-28T06:39:15.407Z,360
2022-09-28T06:40:15.845Z,349
2022-09-28T06:41:16.916Z,341
2022-09-28T06:42:16.098Z,346
2022-09-28T06:43:16.040Z,353
2022-09-28T06:44:15.767Z,356
2022-09-28T06:46:15.815Z,347
2022-09-28T06:47:16.352Z,348
2022-09-28T06:48:16.209Z,350
2022-09-28T06:49:19.220Z,358
2022-09-28T06:50:16.037Z,359
2022-09-28T06:51:16.157Z,360
2022-09-28T06:52:15.352Z,358
2022-09-28T06:53:16.423Z,355
2022-09-28T06:54:15.370Z,358
2022-09-28T06:55:15.515Z,353
2022-09-28T06:56:16.575Z,349
2022-09-28T06:57:16.183Z,351
2022-09-28T06:58:15.561Z,357
2022-09-28T06:59:15.415Z,351
2022-09-28T07:00:15.117Z,362
2022-09-28T07:01:16.602Z,359
2022-09-28T07:02:16.240Z,356
2022-09-28T07:04:15.583Z,349
2022-09-28T07:05:15.914Z,346
2022-09-28T07:06:16.856Z,345
2022-09-28T07:07:16.354Z,342
2022-09-28T07:08:16.181Z,344
2022-09-28T07:09:36.166Z,354
2022-09-28T07:10:16.425Z,353
2022-09-28T07:11:16.001Z,355
2022-09-28T07:12:16.551Z,344
2022-09-28T07:13:49.774Z,377
2022-09-28T07:14:29.344Z,345
2022-09-28T07:15:16.496Z,343
2022-09-28T07:16:16.042Z,341
2022-09-28T07:17:19.408Z,351
2022-09-28T07:18:16.732Z,352
2022-09-28T07:20:23.664Z,343
2022-09-28T07:21:32.249Z,338
2022-09-28T07:22:24.856Z,342
2022-09-28T07:23:24.195Z,350
2022-09-28T07:24:15.383Z,352
2022-09-28T07:25:15.739Z,358
2022-09-28T07:26:20.125Z,363
2022-09-28T07:27:16.260Z,350
2022-09-28T07:28:15.898Z,358
2022-09-28T07:29:15.744Z,344
2022-09-28T07:30:16.078Z,354
2022-09-28T07:31:15.971Z,356
2022-09-28T07:32:16.383Z,357
2022-09-28T07:34:14.831Z,343
2022-09-28T07:35:16.602Z,350
2022-09-28T07:36:16.017Z,349
2022-09-28T07:37:15.779Z,346
2022-09-28T07:38:16.480Z,342
2022-09-28T07:39:15.288Z,349
2022-09-28T07:40:15.684Z,353
2022-09-28T07:41:16.492Z,354
2022-09-28T07:42:15.961Z,352
2022-09-28T07:43:16.553Z,350
2022-09-28T07:44:16.223Z,348
2022-09-28T07:45:15.882Z,354
2022-09-28T07:46:16.571Z,353
2022-09-28T07:47:16.289Z,342
2022-09-28T07:48:17.590Z,351
2022-09-28T07:49:16.074Z,352
2022-09-28T07:50:15.956Z,343
2022-09-28T07:52:16.168Z,353
2022-09-28T07:53:16.083Z,349
2022-09-28T07:54:15.416Z,347
2022-09-28T07:55:16.399Z,344
2022-09-28T07:56:15.482Z,341
2022-09-28T07:57:17.067Z,335
2022-09-28T07:58:16.452Z,336
2022-09-28T07:59:15.087Z,326
2022-09-28T08:00:16.894Z,328
2022-09-28T08:01:16.502Z,334
2022-09-28T08:02:16.080Z,331
2022-09-28T08:03:16.570Z,352
2022-09-28T08:04:15.473Z,353
2022-09-28T08:05:15.851Z,352
2022-09-28T08:06:16.577Z,354
2022-09-28T08:07:17.793Z,351
2022-09-28T08:08:15.723Z,348
2022-09-28T08:09:15.615Z,349
2022-09-28T08:11:16.038Z,357
2022-09-28T08:12:16.421Z,347
2022-09-28T08:13:16.280Z,332
2022-09-28T08:14:15.729Z,337
2022-09-28T08:15:16.324Z,336
2022-09-28T08:16:16.291Z,342
2022-09-28T08:17:15.797Z,352
2022-09-28T08:18:16.360Z,358
2022-09-28T08:19:15.069Z,359
2022-09-28T08:20:16.493Z,346
2022-09-28T08:21:16.351Z,345
2022-09-28T08:23:16.435Z,349
2022-09-28T08:24:14.997Z,347
2022-09-28T08:25:15.810Z,338
2022-09-28T08:26:20.148Z,346
2022-09-28T08:27:16.116Z,342
2022-09-28T08:28:16.018Z,341
2022-09-28T08:29:15.488Z,351
2022-09-28T08:30:16.010Z,350
2022-09-28T08:31:16.826Z,342
2022-09-28T08:32:16.280Z,343
2022-09-28T08:33:16.086Z,350
2022-09-28T08:34:14.965Z,339
2022-09-28T08:35:16.205Z,350
2022-09-28T08:36:15.603Z,334
2022-09-28T08:37:16.561Z,339
2022-09-28T08:38:16.126Z,329
2022-09-28T08:39:15.231Z,337
2022-09-28T08:40:16.185Z,338
2022-09-28T08:41:16.139Z,351
2022-09-28T08:42:15.867Z,349
2022-09-28T08:43:16.223Z,338
2022-09-28T08:44:14.695Z,337
2022-09-28T08:45:16.439Z,349
2022-09-28T08:46:16.763Z,351
2022-09-28T08:47:15.953Z,343
2022-09-28T08:48:16.421Z,344
2022-09-28T08:49:28.615Z,342
2022-09-28T08:50:16.616Z,343
2022-09-28T08:51:16.170Z,336
2022-09-28T08:52:15.747Z,332
2022-09-28T08:53:16.081Z,333
2022-09-28T08:54:15.570Z,326
2022-09-28T08:55:15.830Z,330
2022-09-28T08:56:16.292Z,376
2022-09-28T08:57:16.170Z,362
2022-09-28T08:58:16.484Z,350
2022-09-28T08:59:15.603Z,349
2022-09-28T09:00:16.282Z,343
2022-09-28T09:01:16.930Z,340
2022-09-28T09:02:16.462Z,348
2022-09-28T09:03:15.972Z,351
2022-09-28T09:04:16.012Z,341
2022-09-28T09:05:16.159Z,344
2022-09-28T09:06:18.641Z,335
2022-09-28T09:07:16.695Z,338
2022-09-28T09:08:16.157Z,345
2022-09-28T09:09:15.065Z,341
2022-09-28T09:10:16.040Z,331
2022-09-28T09:11:16.113Z,338
2022-09-28T09:12:15.635Z,339
2022-09-28T09:13:16.481Z,340
2022-09-28T09:14:15.495Z,342
2022-09-28T09:15:15.741Z,344
2022-09-28T09:16:16.427Z,366
2022-09-28T09:17:16.236Z,357
2022-09-28T09:18:19.264Z,341
2022-09-28T09:19:15.556Z,340
2022-09-28T09:20:15.507Z,339
2022-09-28T09:21:15.915Z,342
2022-09-28T09:22:16.161Z,350
2022-09-28T09:24:14.806Z,348
2022-09-28T09:25:16.449Z,345
2022-09-28T09:26:19.697Z,350
2022-09-28T09:27:15.579Z,343
2022-09-28T09:28:15.997Z,340
2022-09-28T09:29:14.850Z,345
2022-09-28T09:30:18.304Z,343
2022-09-28T09:31:18.616Z,348
2022-09-28T09:32:15.617Z,356
2022-09-28T09:33:16.424Z,347
2022-09-28T09:34:15.249Z,340
2022-09-28T09:35:15.790Z,373
2022-09-28T09:36:16.106Z,348
2022-09-28T09:37:16.296Z,339
2022-09-28T09:38:16.257Z,343
2022-09-28T09:39:15.493Z,336
2022-09-28T09:41:16.008Z,334
2022-09-28T09:42:16.417Z,341
2022-09-28T09:43:16.153Z,339
2022-09-28T09:44:15.803Z,342
2022-09-28T09:46:15.904Z,344
2022-09-28T09:47:16.343Z,348
2022-09-28T09:48:16.101Z,358
2022-09-28T09:49:15.993Z,350
2022-09-28T09:50:16.148Z,345
2022-09-28T09:51:15.886Z,341
2022-09-28T09:52:16.668Z,339
2022-09-28T09:53:16.394Z,337
2022-09-28T09:54:14.635Z,345
2022-09-28T09:55:16.611Z,338
2022-09-28T09:56:16.196Z,336
2022-09-28T09:57:16.218Z,341
2022-09-28T09:58:16.301Z,345
2022-09-28T09:59:15.240Z,336
2022-09-28T10:00:16.383Z,340
2022-09-28T10:01:16.460Z,344
2022-09-28T10:02:15.818Z,341
2022-09-28T10:03:16.696Z,345
2022-09-28T10:04:15.216Z,347
2022-09-28T10:05:15.845Z,345
2022-09-28T10:08:16.127Z,350
2022-09-28T10:09:15.867Z,354
2022-09-28T10:10:15.724Z,348
2022-09-28T10:11:15.964Z,336
2022-09-28T10:12:16.495Z,313
2022-09-28T10:13:16.171Z,345
2022-09-28T10:14:15.037Z,340
2022-09-28T10:15:16.328Z,324
2022-09-28T10:16:16.424Z,331
2022-09-28T10:17:15.905Z,345
2022-09-28T10:18:16.531Z,336
2022-09-28T10:19:15.272Z,348
2022-09-28T10:20:15.399Z,340
2022-09-28T10:21:16.470Z,333
2022-09-28T10:22:15.591Z,335
2022-09-28T10:23:16.694Z,336
2022-09-28T10:24:14.959Z,334
2022-09-28T10:25:15.988Z,338
2022-09-28T10:26:16.390Z,335
2022-09-28T10:27:16.260Z,337
2022-09-28T10:29:16.113Z,328
2022-09-28T10:30:15.861Z,331
2022-09-28T10:31:17.177Z,313
2022-09-28T10:32:16.144Z,357
2022-09-28T10:33:15.647Z,369
2022-09-28T10:34:15.574Z,328
2022-09-28T10:35:15.989Z,333
2022-09-28T10:36:15.601Z,335
2022-09-28T10:37:16.513Z,345
2022-09-28T10:39:15.784Z,338
2022-09-28T10:40:15.849Z,340
2022-09-28T10:41:15.853Z,331
2022-09-28T10:42:15.644Z,338
2022-09-28T10:43:16.666Z,340
2022-09-28T10:44:14.845Z,348
2022-09-28T10:45:16.380Z,329
2022-09-28T10:46:16.769Z,318
2022-09-28T10:47:16.013Z,329
2022-09-28T10:48:16.120Z,330
2022-09-28T10:49:15.401Z,328
2022-09-28T10:50:16.134Z,333
2022-09-28T10:51:16.681Z,359
2022-09-28T10:52:15.614Z,314
2022-09-28T10:53:15.914Z,324
2022-09-28T10:54:15.628Z,332
2022-09-28T10:55:16.087Z,338
2022-09-28T10:56:15.952Z,342
2022-09-28T10:57:18.028Z,340
2022-09-28T10:58:16.227Z,348
2022-09-28T10:59:15.107Z,347
2022-09-28T11:00:16.397Z,343
2022-09-28T11:01:16.053Z,344
2022-09-28T11:02:15.164Z,348
2022-09-28T11:03:16.340Z,340
2022-09-28T11:04:15.498Z,333
2022-09-28T11:05:15.811Z,327
2022-09-28T11:06:15.926Z,342
2022-09-28T11:07:17.747Z,346
2022-09-28T11:08:16.436Z,348
2022-09-28T11:09:15.470Z,349
2022-09-28T11:10:15.738Z,354
2022-09-28T11:11:16.586Z,355
2022-09-28T11:12:15.862Z,347
2022-09-28T11:13:15.758Z,346
2022-09-28T11:14:15.706Z,339
2022-09-28T11:16:16.300Z,340
2022-09-28T11:17:16.232Z,345
2022-09-28T11:18:15.436Z,340
2022-09-28T11:19:15.822Z,334
2022-09-28T11:20:16.227Z,337
2022-09-28T11:21:17.511Z,328
2022-09-28T11:22:18.392Z,327
2022-09-28T11:23:16.172Z,334
2022-09-28T11:24:18.881Z,338
2022-09-28T11:25:16.376Z,331
2022-09-28T11:28:16.195Z,338
2022-09-28T11:29:15.151Z,343
2022-09-28T11:30:16.108Z,342
2022-09-28T11:32:20.349Z,347
2022-09-28T11:33:16.456Z,342
2022-09-28T11:34:15.285Z,333
2022-09-28T11:35:16.750Z,338
2022-09-28T11:36:16.506Z,336
2022-09-28T11:37:15.928Z,339
2022-09-28T11:38:16.423Z,357
2022-09-28T11:39:15.345Z,350
2022-09-28T11:40:15.879Z,338
2022-09-28T11:41:16.208Z,337
2022-09-28T11:42:20.773Z,339
2022-09-28T11:43:19.019Z,336
2022-09-28T11:44:15.307Z,339
2022-09-28T11:45:15.998Z,336
2022-09-28T11:46:16.594Z,326
2022-09-28T11:47:16.273Z,331
2022-09-28T11:48:15.625Z,336
2022-09-28T11:49:16.413Z,341
2022-09-28T11:50:17.064Z,333
2022-09-28T11:51:16.788Z,330
2022-09-28T11:52:16.451Z,342
2022-09-28T11:53:16.044Z,340
2022-09-28T11:54:15.977Z,347
2022-09-28T11:55:16.679Z,337
2022-09-28T11:56:15.972Z,340
2022-09-28T11:57:16.645Z,349
2022-09-28T11:58:15.915Z,340
2022-09-28T11:59:15.872Z,330
2022-09-28T12:00:16.386Z,334
2022-09-28T12:01:18.959Z,344
2022-09-28T12:03:16.442Z,339
2022-09-28T12:04:15.336Z,330
2022-09-28T12:05:20.771Z,323
2022-09-28T12:06:16.346Z,327
2022-09-28T12:07:16.080Z,312
2022-09-28T12:08:16.797Z,355
2022-09-28T12:09:15.580Z,345
2022-09-28T12:10:16.031Z,342
2022-09-28T12:11:16.700Z,341
2022-09-28T12:12:16.072Z,340
2022-09-28T12:13:16.264Z,343
2022-09-28T12:14:15.748Z,348
2022-09-28T12:15:16.240Z,346
2022-09-28T12:17:05.926Z,337
2022-09-28T12:17:20.011Z,340
2022-09-28T12:18:16.536Z,336
2022-09-28T12:19:15.010Z,339
2022-09-28T12:20:16.565Z,332
2022-09-28T12:21:16.296Z,342
2022-09-28T12:22:16.211Z,337
2022-09-28T12:23:16.607Z,333
2022-09-28T12:24:15.154Z,330
2022-09-28T12:25:16.057Z,338
2022-09-28T12:26:15.651Z,347
2022-09-28T12:27:15.873Z,323
2022-09-28T12:28:16.459Z,332
2022-09-28T12:29:15.321Z,342
2022-09-28T12:30:15.921Z,333
2022-09-28T12:31:16.491Z,339
2022-09-28T12:32:16.377Z,341
2022-09-28T12:33:15.896Z,345
2022-09-28T12:34:15.562Z,344
2022-09-28T12:35:16.233Z,337
2022-09-28T12:36:15.711Z,347
2022-09-28T12:37:16.598Z,349
2022-09-28T12:38:15.600Z,344
2022-09-28T12:39:56.530Z,332
2022-09-28T12:40:16.181Z,331
2022-09-28T12:41:16.208Z,342
2022-09-28T12:42:15.025Z,335
2022-09-28T12:44:15.188Z,342
2022-09-28T12:45:16.710Z,339
2022-09-28T12:46:17.814Z,321
2022-09-28T12:47:15.905Z,325
2022-09-28T12:48:16.092Z,329
2022-09-28T12:50:37.498Z,335
2022-09-28T12:50:57.405Z,343
2022-09-28T12:51:16.298Z,346
2022-09-28T12:52:16.034Z,345
2022-09-28T12:54:15.417Z,346
2022-09-28T12:55:15.892Z,348
2022-09-28T12:56:19.358Z,352
2022-09-28T12:57:16.349Z,343
2022-09-28T12:58:16.153Z,349
2022-09-28T13:00:15.714Z,339
2022-09-28T13:01:15.780Z,338
2022-09-28T13:02:16.455Z,341
2022-09-28T13:03:16.129Z,338
2022-09-28T13:04:17.489Z,354
2022-09-28T13:05:16.663Z,351
2022-09-28T13:06:16.868Z,338
2022-09-28T13:07:20.913Z,348
2022-09-28T13:08:16.138Z,344
2022-09-28T13:09:16.275Z,341
2022-09-28T13:10:15.760Z,347
2022-09-28T13:11:16.590Z,345
2022-09-28T13:12:16.197Z,337
2022-09-28T13:13:20.828Z,332
2022-09-28T13:14:15.495Z,341
2022-09-28T13:15:16.030Z,337
2022-09-28T13:16:15.883Z,330
2022-09-28T13:17:16.706Z,339
2022-09-28T13:18:16.097Z,324
2022-09-28T13:19:21.079Z,316
2022-09-28T13:20:16.274Z,323
2022-09-28T13:21:15.994Z,342
2022-09-28T13:22:21.803Z,337
2022-09-28T13:23:16.624Z,360
2022-09-28T13:24:35.490Z,342
2022-09-28T13:26:16.357Z,343
2022-09-28T13:27:16.142Z,337
2022-09-28T13:28:16.581Z,334
2022-09-28T13:29:15.616Z,331
2022-09-28T13:30:15.805Z,333
2022-09-28T13:31:16.583Z,339
2022-09-28T13:32:16.325Z,332
2022-09-28T13:33:15.854Z,329
2022-09-28T13:34:15.409Z,326
2022-09-28T13:35:16.152Z,330
2022-09-28T13:36:15.595Z,335
2022-09-28T13:37:16.591Z,341
2022-09-28T13:38:21.194Z,343
2022-09-28T13:39:15.069Z,340
2022-09-28T13:40:16.623Z,342
2022-09-28T13:41:16.153Z,346
2022-09-28T13:42:20.845Z,349
2022-09-28T13:43:19.569Z,357
2022-09-28T13:44:15.087Z,340
2022-09-28T13:45:15.700Z,337
2022-09-28T13:46:16.562Z,346
2022-09-28T13:47:20.532Z,341
2022-09-28T13:48:16.030Z,331
2022-09-28T13:49:15.562Z,337
2022-09-28T13:50:16.148Z,351
2022-09-28T13:51:15.971Z,340
2022-09-28T13:52:16.357Z,343
2022-09-28T13:54:15.877Z,338
2022-09-28T13:55:16.211Z,333
2022-09-28T13:56:15.486Z,335
2022-09-28T13:57:16.574Z,339
2022-09-28T13:58:16.168Z,340
2022-09-28T13:59:15.981Z,342
2022-09-28T14:00:16.597Z,337
2022-09-28T14:01:16.363Z,351
2022-09-28T14:02:15.236Z,357
2022-09-28T14:03:17.118Z,344
2022-09-28T14:05:16.896Z,326
2022-09-28T14:07:15.967Z,332
2022-09-28T14:08:16.746Z,330
2022-09-28T14:09:15.362Z,333
2022-09-28T14:10:15.899Z,335
2022-09-28T14:11:16.732Z,345
2022-09-28T14:12:15.945Z,339
2022-09-28T14:13:15.637Z,338
2022-09-28T14:14:16.361Z,337
2022-09-28T14:15:16.347Z,336
2022-09-28T14:16:15.758Z,331
2022-09-28T14:17:16.717Z,333
2022-09-28T14:18:16.124Z,345
2022-09-28T14:19:15.066Z,343
2022-09-28T14:20:16.549Z,334
2022-09-28T14:21:16.242Z,322
2022-09-28T14:22:16.191Z,335
2022-09-28T14:23:16.561Z,341
2022-09-28T14:24:16.072Z,334
2022-09-28T14:25:15.823Z,332
2022-09-28T14:26:16.194Z,331
2022-09-28T14:27:16.229Z,342
2022-09-28T14:28:15.676Z,334
2022-09-28T14:29:16.386Z,325
2022-09-28T14:30:15.629Z,333
2022-09-28T14:31:16.865Z,339
2022-09-28T14:33:16.091Z,329
2022-09-28T14:34:15.555Z,323
2022-09-28T14:35:21.220Z,320